sensor_id;sensor_type;location;lat;lon;timestamp;pressure;altitude;pressure_sealevel;temperature;humidity
3150;BME280;32503;47.748;8.960;2022-07-29T00:01:54;96779.38;;;24.21;53.46
3150;BME280;32503;47.748;8.960;2022-07-29T00:04:21;96775.50;;;24.19;53.58
3150;BME280;32503;47.748;8.960;2022-07-29T00:06:48;96768.47;;;24.18;53.68
3150;BME280;32503;47.748;8.960;2022-07-29T00:09:15;96778.41;;;24.15;54.15
3150;BME280;32503;47.748;8.960;2022-07-29T00:11:42;96777.19;;;24.16;54.01
3150;BME280;32503;47.748;8.960;2022-07-29T00:14:09;96770.13;;;24.15;53.76
3150;BME280;32503;47.748;8.960;2022-07-29T00:16:38;96768.59;;;24.14;53.82
3150;BME280;32503;47.748;8.960;2022-07-29T00:19:05;96762.41;;;24.10;53.85
3150;BME280;32503;47.748;8.960;2022-07-29T00:21:32;96771.91;;;24.09;53.98
3150;BME280;32503;47.748;8.960;2022-07-29T00:23:59;96774.31;;;24.07;53.64
3150;BME280;32503;47.748;8.960;2022-07-29T00:26:26;96767.72;;;24.04;53.86
3150;BME280;32503;47.748;8.960;2022-07-29T00:28:58;96761.44;;;24.04;53.65
3150;BME280;32503;47.748;8.960;2022-07-29T00:31:25;96754.81;;;24.01;53.81
3150;BME280;32503;47.748;8.960;2022-07-29T00:33:54;96750.50;;;24.00;53.86
3150;BME280;32503;47.748;8.960;2022-07-29T00:36:22;96751.72;;;23.99;53.83
3150;BME280;32503;47.748;8.960;2022-07-29T00:38:49;96756.16;;;23.97;53.49
3150;BME280;32503;47.748;8.960;2022-07-29T00:41:17;96751.84;;;23.96;53.69
3150;BME280;32503;47.748;8.960;2022-07-29T00:43:45;96756.72;;;23.92;53.74
3150;BME280;32503;47.748;8.960;2022-07-29T00:46:12;96749.66;;;23.91;53.48
3150;BME280;32503;47.748;8.960;2022-07-29T00:48:39;96747.44;;;23.85;53.55
3150;BME280;32503;47.748;8.960;2022-07-29T00:51:07;96749.22;;;23.79;53.40
3150;BME280;32503;47.748;8.960;2022-07-29T00:53:36;96750.41;;;23.78;53.28
3150;BME280;32503;47.748;8.960;2022-07-29T00:56:04;96747.91;;;23.71;53.94
3150;BME280;32503;47.748;8.960;2022-07-29T00:58:31;96749.13;;;23.70;53.67
3150;BME280;32503;47.748;8.960;2022-07-29T01:00:58;96744.94;;;23.65;54.01
3150;BME280;32503;47.748;8.960;2022-07-29T01:03:25;96739.84;;;23.64;54.20
3150;BME280;32503;47.748;8.960;2022-07-29T01:05:53;96729.06;;;23.57;54.11
3150;BME280;32503;47.748;8.960;2022-07-29T01:08:23;96739.53;;;23.62;54.12
3150;BME280;32503;47.748;8.960;2022-07-29T01:10:51;96741.06;;;23.50;54.45
3150;BME280;32503;47.748;8.960;2022-07-29T01:13:20;96743.31;;;23.42;54.94
3150;BME280;32503;47.748;8.960;2022-07-29T01:15:53;96731.50;;;23.29;55.08
3150;BME280;32503;47.748;8.960;2022-07-29T01:18:28;96723.44;;;23.22;55.29
3150;BME280;32503;47.748;8.960;2022-07-29T01:21:27;96724.03;;;23.30;55.34
3150;BME280;32503;47.748;8.960;2022-07-29T01:24:14;96720.91;;;23.27;55.72
3150;BME280;32503;47.748;8.960;2022-07-29T01:26:49;96718.16;;;23.27;55.67
3150;BME280;32503;47.748;8.960;2022-07-29T01:29:26;96731.06;;;23.31;56.22
3150;BME280;32503;47.748;8.960;2022-07-29T01:32:01;96716.41;;;23.21;56.53
3150;BME280;32503;47.748;8.960;2022-07-29T01:34:37;96722.56;;;23.25;56.88
3150;BME280;32503;47.748;8.960;2022-07-29T01:37:13;96710.09;;;23.20;57.32
3150;BME280;32503;47.748;8.960;2022-07-29T01:39:43;96694.00;;;23.06;57.40
3150;BME280;32503;47.748;8.960;2022-07-29T01:42:19;96711.56;;;23.12;57.45
3150;BME280;32503;47.748;8.960;2022-07-29T01:44:57;96689.44;;;22.99;57.54
3150;BME280;32503;47.748;8.960;2022-07-29T01:47:31;96707.03;;;23.05;57.73
3150;BME280;32503;47.748;8.960;2022-07-29T01:50:01;96703.59;;;23.01;57.76
3150;BME280;32503;47.748;8.960;2022-07-29T01:52:37;96697.72;;;22.99;57.86
3150;BME280;32503;47.748;8.960;2022-07-29T01:55:13;96702.03;;;23.00;57.59
3150;BME280;32503;47.748;8.960;2022-07-29T01:57:45;96709.78;;;23.05;57.44
3150;BME280;32503;47.748;8.960;2022-07-29T02:00:16;96709.78;;;23.05;57.26
3150;BME280;32503;47.748;8.960;2022-07-29T02:02:46;96709.41;;;22.90;57.48
3150;BME280;32503;47.748;8.960;2022-07-29T02:05:17;96708.53;;;22.94;57.27
3150;BME280;32503;47.748;8.960;2022-07-29T02:07:47;96713.28;;;22.93;57.27
3150;BME280;32503;47.748;8.960;2022-07-29T02:10:16;96701.94;;;22.91;57.39
3150;BME280;32503;47.748;8.960;2022-07-29T02:12:46;96710.41;;;22.84;57.83
3150;BME280;32503;47.748;8.960;2022-07-29T02:15:16;96702.78;;;22.75;58.23
3150;BME280;32503;47.748;8.960;2022-07-29T02:17:51;96718.63;;;22.71;58.59
3150;BME280;32503;47.748;8.960;2022-07-29T02:20:22;96715.44;;;22.72;58.36
3150;BME280;32503;47.748;8.960;2022-07-29T02:22:52;96706.84;;;22.70;58.86
3150;BME280;32503;47.748;8.960;2022-07-29T02:25:21;96706.53;;;22.68;58.90
3150;BME280;32503;47.748;8.960;2022-07-29T02:27:50;96704.41;;;22.60;59.56
3150;BME280;32503;47.748;8.960;2022-07-29T02:30:20;96716.75;;;22.55;60.07
3150;BME280;32503;47.748;8.960;2022-07-29T02:32:49;96715.75;;;22.49;60.39
3150;BME280;32503;47.748;8.960;2022-07-29T02:35:18;96708.25;;;22.49;60.56
3150;BME280;32503;47.748;8.960;2022-07-29T02:37:47;96698.78;;;22.50;60.42
3150;BME280;32503;47.748;8.960;2022-07-29T02:40:38;96710.34;;;22.58;60.30
3150;BME280;32503;47.748;8.960;2022-07-29T02:43:06;96711.44;;;22.48;60.92
3150;BME280;32503;47.748;8.960;2022-07-29T02:45:37;96705.94;;;22.48;60.90
3150;BME280;32503;47.748;8.960;2022-07-29T02:48:13;96690.13;;;22.36;60.85
3150;BME280;32503;47.748;8.960;2022-07-29T02:50:48;96704.91;;;22.29;61.12
3150;BME280;32503;47.748;8.960;2022-07-29T02:53:19;96706.13;;;22.41;61.18
3150;BME280;32503;47.748;8.960;2022-07-29T02:55:55;96722.13;;;22.46;60.95
3150;BME280;32503;47.748;8.960;2022-07-29T02:58:27;96728.06;;;22.44;61.15
3150;BME280;32503;47.748;8.960;2022-07-29T03:00:58;96711.84;;;22.33;61.33
3150;BME280;32503;47.748;8.960;2022-07-29T03:03:32;96720.44;;;22.36;61.28
3150;BME280;32503;47.748;8.960;2022-07-29T03:06:01;96713.59;;;22.27;61.82
3150;BME280;32503;47.748;8.960;2022-07-29T03:08:30;96723.81;;;22.27;61.69
3150;BME280;32503;47.748;8.960;2022-07-29T03:10:58;96724.94;;;22.29;61.45
3150;BME280;32503;47.748;8.960;2022-07-29T03:13:26;96728.53;;;22.26;61.59
3150;BME280;32503;47.748;8.960;2022-07-29T03:15:55;96719.59;;;22.22;61.94
3150;BME280;32503;47.748;8.960;2022-07-29T03:18:24;96710.84;;;22.11;61.94
3150;BME280;32503;47.748;8.960;2022-07-29T03:20:51;96720.13;;;22.17;62.03
3150;BME280;32503;47.748;8.960;2022-07-29T03:23:19;96721.22;;;22.20;61.88
3150;BME280;32503;47.748;8.960;2022-07-29T03:25:48;96712.22;;;22.19;61.68
3150;BME280;32503;47.748;8.960;2022-07-29T03:28:15;96710.66;;;22.18;61.49
3150;BME280;32503;47.748;8.960;2022-07-29T03:30:43;96720.69;;;22.25;60.95
3150;BME280;32503;47.748;8.960;2022-07-29T03:33:11;96715.28;;;22.21;61.20
3150;BME280;32503;47.748;8.960;2022-07-29T03:35:38;96716.25;;;22.14;61.25
3150;BME280;32503;47.748;8.960;2022-07-29T03:38:06;96714.28;;;22.15;61.03
3150;BME280;32503;47.748;8.960;2022-07-29T03:40:38;96715.91;;;22.12;61.17
3150;BME280;32503;47.748;8.960;2022-07-29T03:43:08;96719.44;;;22.13;61.13
3150;BME280;32503;47.748;8.960;2022-07-29T03:45:37;96707.94;;;22.02;61.44
3150;BME280;32503;47.748;8.960;2022-07-29T03:48:10;96693.38;;;21.88;61.68
3150;BME280;32503;47.748;8.960;2022-07-29T03:50:41;96723.59;;;22.05;61.69
3150;BME280;32503;47.748;8.960;2022-07-29T03:53:08;96720.84;;;22.05;61.86
3150;BME280;32503;47.748;8.960;2022-07-29T03:55:41;96712.25;;;22.03;61.95
3150;BME280;32503;47.748;8.960;2022-07-29T03:58:09;96714.22;;;22.02;62.11
3150;BME280;32503;47.748;8.960;2022-07-29T04:00:38;96710.72;;;22.02;62.37
3150;BME280;32503;47.748;8.960;2022-07-29T04:03:06;96722.94;;;22.01;62.57
3150;BME280;32503;47.748;8.960;2022-07-29T04:05:33;96724.38;;;22.05;62.31
3150;BME280;32503;47.748;8.960;2022-07-29T04:08:02;96640.13;;;21.49;62.35
3150;BME280;32503;47.748;8.960;2022-07-29T04:10:29;96734.44;;;22.12;62.10
3150;BME280;32503;47.748;8.960;2022-07-29T04:12:56;96719.81;;;22.15;61.88
3150;BME280;32503;47.748;8.960;2022-07-29T04:15:23;96736.22;;;22.19;61.59
3150;BME280;32503;47.748;8.960;2022-07-29T04:17:51;96736.78;;;22.26;61.36
3150;BME280;32503;47.748;8.960;2022-07-29T04:20:18;96729.03;;;22.38;60.97
3150;BME280;32503;47.748;8.960;2022-07-29T04:22:45;96733.44;;;22.35;61.33
3150;BME280;32503;47.748;8.960;2022-07-29T04:25:13;96730.38;;;22.46;60.91
3150;BME280;32503;47.748;8.960;2022-07-29T04:27:40;96753.19;;;22.46;60.90
3150;BME280;32503;47.748;8.960;2022-07-29T04:30:25;96756.56;;;22.38;61.23
3150;BME280;32503;47.748;8.960;2022-07-29T04:32:53;96746.44;;;22.34;61.36
3150;BME280;32503;47.748;8.960;2022-07-29T04:35:20;96735.97;;;22.13;61.55
3150;BME280;32503;47.748;8.960;2022-07-29T04:37:47;96753.06;;;22.21;61.78
3150;BME280;32503;47.748;8.960;2022-07-29T04:40:16;96757.03;;;22.20;61.79
3150;BME280;32503;47.748;8.960;2022-07-29T04:42:43;96756.44;;;22.12;62.03
3150;BME280;32503;47.748;8.960;2022-07-29T04:45:10;96765.22;;;22.07;62.20
3150;BME280;32503;47.748;8.960;2022-07-29T04:47:37;96767.66;;;22.05;62.27
3150;BME280;32503;47.748;8.960;2022-07-29T04:50:06;96762.81;;;22.09;62.02
3150;BME280;32503;47.748;8.960;2022-07-29T04:52:33;96756.44;;;22.12;61.84
3150;BME280;32503;47.748;8.960;2022-07-29T04:55:01;96760.31;;;22.14;61.75
3150;BME280;32503;47.748;8.960;2022-07-29T04:57:30;96742.00;;;22.08;61.93
3150;BME280;32503;47.748;8.960;2022-07-29T04:59:57;96753.34;;;22.10;61.69
3150;BME280;32503;47.748;8.960;2022-07-29T05:02:24;96744.66;;;22.11;61.58
3150;BME280;32503;47.748;8.960;2022-07-29T05:04:51;96747.84;;;22.10;61.65
3150;BME280;32503;47.748;8.960;2022-07-29T05:07:19;96743.97;;;22.07;61.81
3150;BME280;32503;47.748;8.960;2022-07-29T05:09:46;96747.16;;;22.06;61.87
3150;BME280;32503;47.748;8.960;2022-07-29T05:12:13;96751.47;;;22.07;61.78
3150;BME280;32503;47.748;8.960;2022-07-29T05:14:42;96752.66;;;22.06;61.91
3150;BME280;32503;47.748;8.960;2022-07-29T05:17:09;96743.53;;;22.09;62.03
3150;BME280;32503;47.748;8.960;2022-07-29T05:19:36;96751.81;;;22.09;62.07
3150;BME280;32503;47.748;8.960;2022-07-29T05:22:03;96755.69;;;22.11;62.12
3150;BME280;32503;47.748;8.960;2022-07-29T05:24:31;96754.03;;;22.14;62.01
3150;BME280;32503;47.748;8.960;2022-07-29T05:26:58;96757.91;;;22.17;61.92
3150;BME280;32503;47.748;8.960;2022-07-29T05:29:25;96765.91;;;22.11;62.26
3150;BME280;32503;47.748;8.960;2022-07-29T05:31:54;96756.00;;;22.13;62.45
3150;BME280;32503;47.748;8.960;2022-07-29T05:34:21;96752.63;;;22.22;62.33
3150;BME280;32503;47.748;8.960;2022-07-29T05:36:48;96751.25;;;22.30;61.84
3150;BME280;32503;47.748;8.960;2022-07-29T05:39:15;96746.34;;;22.38;61.57
3150;BME280;32503;47.748;8.960;2022-07-29T05:41:42;96739.88;;;22.45;61.31
3150;BME280;32503;47.748;8.960;2022-07-29T05:44:09;96752.41;;;22.46;61.22
3150;BME280;32503;47.748;8.960;2022-07-29T05:46:37;96748.81;;;22.49;61.20
3150;BME280;32503;47.748;8.960;2022-07-29T05:49:05;96748.69;;;22.52;61.16
3150;BME280;32503;47.748;8.960;2022-07-29T05:51:33;96751.34;;;22.56;61.19
3150;BME280;32503;47.748;8.960;2022-07-29T05:54:01;96752.22;;;22.53;61.35
3150;BME280;32503;47.748;8.960;2022-07-29T05:56:28;96747.56;;;22.50;61.21
3150;BME280;32503;47.748;8.960;2022-07-29T05:58:55;96747.66;;;22.46;61.22
3150;BME280;32503;47.748;8.960;2022-07-29T06:01:23;96749.91;;;22.51;60.98
3150;BME280;32503;47.748;8.960;2022-07-29T06:03:50;96738.88;;;22.51;60.94
3150;BME280;32503;47.748;8.960;2022-07-29T06:06:18;96741.09;;;22.57;60.48
3150;BME280;32503;47.748;8.960;2022-07-29T06:08:45;96753.69;;;22.70;60.17
3150;BME280;32503;47.748;8.960;2022-07-29T06:11:13;96761.84;;;22.74;60.22
3150;BME280;32503;47.748;8.960;2022-07-29T06:13:40;96767.38;;;22.74;60.18
3150;BME280;32503;47.748;8.960;2022-07-29T06:16:07;96758.47;;;22.83;60.12
3150;BME280;32503;47.748;8.960;2022-07-29T06:18:34;96765.00;;;22.89;59.82
3150;BME280;32503;47.748;8.960;2022-07-29T06:21:01;96770.03;;;22.90;59.85
3150;BME280;32503;47.748;8.960;2022-07-29T06:23:36;96772.16;;;22.99;59.77
3150;BME280;32503;47.748;8.960;2022-07-29T06:26:03;96767.31;;;23.03;59.59
3150;BME280;32503;47.748;8.960;2022-07-29T06:28:31;96775.84;;;23.09;59.25
3150;BME280;32503;47.748;8.960;2022-07-29T06:30:59;96777.63;;;23.16;59.25
3150;BME280;32503;47.748;8.960;2022-07-29T06:33:26;96782.81;;;23.26;58.71
3150;BME280;32503;47.748;8.960;2022-07-29T06:35:53;96776.53;;;23.39;58.56
3150;BME280;32503;47.748;8.960;2022-07-29T06:38:20;96780.59;;;23.47;58.71
3150;BME280;32503;47.748;8.960;2022-07-29T06:40:49;96781.78;;;23.59;58.68
3150;BME280;32503;47.748;8.960;2022-07-29T06:43:34;96785.75;;;23.71;58.35
3150;BME280;32503;47.748;8.960;2022-07-29T06:46:06;96783.53;;;23.78;58.13
3150;BME280;32503;47.748;8.960;2022-07-29T06:48:34;96785.31;;;23.85;58.09
3150;BME280;32503;47.748;8.960;2022-07-29T06:51:02;96780.22;;;23.96;57.57
3150;BME280;32503;47.748;8.960;2022-07-29T06:53:31;96787.03;;;24.04;57.62
3150;BME280;32503;47.748;8.960;2022-07-29T06:56:00;96789.63;;;24.21;57.14
3150;BME280;32503;47.748;8.960;2022-07-29T06:58:28;96789.16;;;24.35;56.80
3150;BME280;32503;47.748;8.960;2022-07-29T07:00:56;96800.16;;;24.48;56.72
3150;BME280;32503;47.748;8.960;2022-07-29T07:03:24;96807.56;;;24.51;56.18
3150;BME280;32503;47.748;8.960;2022-07-29T07:05:52;96812.88;;;24.58;56.48
3150;BME280;32503;47.748;8.960;2022-07-29T07:08:21;96818.78;;;24.70;56.00
3150;BME280;32503;47.748;8.960;2022-07-29T07:10:49;96817.59;;;24.58;55.84
3150;BME280;32503;47.748;8.960;2022-07-29T07:13:18;96821.72;;;24.53;55.78
3150;BME280;32503;47.748;8.960;2022-07-29T07:15:45;96826.25;;;24.47;56.23
3150;BME280;32503;47.748;8.960;2022-07-29T07:18:14;96825.53;;;24.34;56.44
3150;BME280;32503;47.748;8.960;2022-07-29T07:20:42;96831.69;;;24.38;56.17
3150;BME280;32503;47.748;8.960;2022-07-29T07:23:10;96824.75;;;24.33;56.65
3150;BME280;32503;47.748;8.960;2022-07-29T07:25:37;96831.97;;;24.18;56.77
3150;BME280;32503;47.748;8.960;2022-07-29T07:28:04;96832.09;;;24.14;57.14
3150;BME280;32503;47.748;8.960;2022-07-29T07:30:33;96838.91;;;24.22;56.97
3150;BME280;32503;47.748;8.960;2022-07-29T07:33:00;96839.78;;;24.32;56.97
3150;BME280;32503;47.748;8.960;2022-07-29T07:35:27;96846.47;;;24.44;56.48
3150;BME280;32503;47.748;8.960;2022-07-29T07:37:55;96845.91;;;24.49;56.72
3150;BME280;32503;47.748;8.960;2022-07-29T07:40:23;96838.06;;;24.48;56.66
3150;BME280;32503;47.748;8.960;2022-07-29T07:42:51;96839.16;;;24.50;56.05
3150;BME280;32503;47.748;8.960;2022-07-29T07:45:18;96841.16;;;24.50;56.24
3150;BME280;32503;47.748;8.960;2022-07-29T07:47:47;96841.66;;;24.70;55.55
3150;BME280;32503;47.748;8.960;2022-07-29T07:50:14;96842.56;;;25.11;54.91
3150;BME280;32503;47.748;8.960;2022-07-29T07:52:47;96837.16;;;25.70;53.70
3150;BME280;32503;47.748;8.960;2022-07-29T07:55:15;96833.88;;;25.94;51.76
3150;BME280;32503;47.748;8.960;2022-07-29T07:57:43;96842.59;;;26.52;50.92
3150;BME280;32503;47.748;8.960;2022-07-29T08:00:12;96833.16;;;27.14;49.63
3150;BME280;32503;47.748;8.960;2022-07-29T08:02:40;96833.38;;;27.86;48.00
3150;BME280;32503;47.748;8.960;2022-07-29T08:05:10;96834.66;;;28.09;46.11
3150;BME280;32503;47.748;8.960;2022-07-29T08:07:41;96835.44;;;27.43;46.59
3150;BME280;32503;47.748;8.960;2022-07-29T08:10:09;96829.03;;;27.61;46.79
3150;BME280;32503;47.748;8.960;2022-07-29T08:12:36;96828.13;;;27.88;46.98
3150;BME280;32503;47.748;8.960;2022-07-29T08:15:04;96829.34;;;27.96;46.45
3150;BME280;32503;47.748;8.960;2022-07-29T08:17:33;96828.91;;;27.89;47.10
3150;BME280;32503;47.748;8.960;2022-07-29T08:20:00;96827.06;;;27.86;46.51
3150;BME280;32503;47.748;8.960;2022-07-29T08:22:29;96833.09;;;27.84;46.89
3150;BME280;32503;47.748;8.960;2022-07-29T08:24:56;96824.34;;;27.76;45.89
3150;BME280;32503;47.748;8.960;2022-07-29T08:27:23;96819.16;;;27.60;46.32
3150;BME280;32503;47.748;8.960;2022-07-29T08:29:52;96827.66;;;27.56;46.52
3150;BME280;32503;47.748;8.960;2022-07-29T08:32:21;96830.50;;;27.38;46.88
3150;BME280;32503;47.748;8.960;2022-07-29T08:34:48;96827.47;;;27.08;47.35
3150;BME280;32503;47.748;8.960;2022-07-29T08:37:15;96819.78;;;26.94;47.72
3150;BME280;32503;47.748;8.960;2022-07-29T08:39:44;96835.34;;;26.91;48.10
3150;BME280;32503;47.748;8.960;2022-07-29T08:42:11;96837.53;;;26.87;48.42
3150;BME280;32503;47.748;8.960;2022-07-29T08:44:39;96842.00;;;26.84;48.50
3150;BME280;32503;47.748;8.960;2022-07-29T08:47:06;96852.75;;;26.82;48.42
3150;BME280;32503;47.748;8.960;2022-07-29T08:49:34;96854.34;;;26.74;48.28
3150;BME280;32503;47.748;8.960;2022-07-29T08:52:02;96856.81;;;26.72;48.64
3150;BME280;32503;47.748;8.960;2022-07-29T08:54:29;96856.16;;;26.68;48.64
3150;BME280;32503;47.748;8.960;2022-07-29T08:56:58;96845.06;;;26.59;48.61
3150;BME280;32503;47.748;8.960;2022-07-29T08:59:27;96844.28;;;26.58;48.71
3150;BME280;32503;47.748;8.960;2022-07-29T09:01:54;96863.25;;;26.69;48.75
3150;BME280;32503;47.748;8.960;2022-07-29T09:04:27;96875.88;;;26.70;48.25
3150;BME280;32503;47.748;8.960;2022-07-29T09:06:58;96885.75;;;26.80;48.33
3150;BME280;32503;47.748;8.960;2022-07-29T09:09:26;96878.34;;;26.86;48.09
3150;BME280;32503;47.748;8.960;2022-07-29T09:11:53;96869.41;;;26.82;48.37
3150;BME280;32503;47.748;8.960;2022-07-29T09:14:22;96881.72;;;26.63;48.77
3150;BME280;32503;47.748;8.960;2022-07-29T09:16:52;96876.47;;;26.56;49.10
3150;BME280;32503;47.748;8.960;2022-07-29T09:19:25;96873.09;;;26.52;48.96
3150;BME280;32503;47.748;8.960;2022-07-29T09:21:53;96871.38;;;26.45;49.31
3150;BME280;32503;47.748;8.960;2022-07-29T09:24:43;96873.69;;;26.46;49.07
3150;BME280;32503;47.748;8.960;2022-07-29T09:27:20;96868.44;;;26.21;47.66
3150;BME280;32503;47.748;8.960;2022-07-29T09:29:56;96863.16;;;26.14;48.50
3150;BME280;32503;47.748;8.960;2022-07-29T09:32:24;96868.84;;;26.10;48.95
3150;BME280;32503;47.748;8.960;2022-07-29T09:35:20;96872.09;;;26.08;49.18
3150;BME280;32503;47.748;8.960;2022-07-29T09:37:48;96869.78;;;26.07;49.32
3150;BME280;32503;47.748;8.960;2022-07-29T09:40:16;96863.88;;;25.96;50.26
3150;BME280;32503;47.748;8.960;2022-07-29T09:42:44;96849.81;;;25.81;50.77
3150;BME280;32503;47.748;8.960;2022-07-29T09:45:27;96854.41;;;25.74;51.74
3150;BME280;32503;47.748;8.960;2022-07-29T09:47:56;96865.53;;;25.84;51.99
3150;BME280;32503;47.748;8.960;2022-07-29T09:50:36;96860.16;;;25.89;51.64
3150;BME280;32503;47.748;8.960;2022-07-29T09:53:03;96851.84;;;25.80;52.50
3150;BME280;32503;47.748;8.960;2022-07-29T09:55:30;96853.50;;;25.78;52.33
3150;BME280;32503;47.748;8.960;2022-07-29T09:58:16;96856.56;;;25.80;52.38
3150;BME280;32503;47.748;8.960;2022-07-29T10:00:46;96854.13;;;25.82;52.79
3150;BME280;32503;47.748;8.960;2022-07-29T10:03:14;96857.53;;;25.86;52.98
3150;BME280;32503;47.748;8.960;2022-07-29T10:05:43;96862.78;;;25.93;52.89
3150;BME280;32503;47.748;8.960;2022-07-29T10:08:12;96865.28;;;26.00;52.53
3150;BME280;32503;47.748;8.960;2022-07-29T10:10:41;96863.13;;;26.04;52.83
3150;BME280;32503;47.748;8.960;2022-07-29T10:13:11;96874.19;;;25.95;52.09
3150;BME280;32503;47.748;8.960;2022-07-29T10:15:41;96868.31;;;25.93;52.75
3150;BME280;32503;47.748;8.960;2022-07-29T10:18:12;96868.00;;;25.91;52.88
3150;BME280;32503;47.748;8.960;2022-07-29T10:20:41;96853.53;;;25.87;52.97
3150;BME280;32503;47.748;8.960;2022-07-29T10:23:09;96855.84;;;25.88;52.81
3150;BME280;32503;47.748;8.960;2022-07-29T10:25:36;96855.53;;;25.86;53.78
3150;BME280;32503;47.748;8.960;2022-07-29T10:28:06;96856.53;;;25.70;53.08
3150;BME280;32503;47.748;8.960;2022-07-29T10:30:33;96850.47;;;25.53;53.99
3150;BME280;32503;47.748;8.960;2022-07-29T10:33:26;96850.91;;;25.21;53.14
3150;BME280;32503;47.748;8.960;2022-07-29T10:36:10;96848.13;;;25.21;54.18
3150;BME280;32503;47.748;8.960;2022-07-29T10:38:45;96840.69;;;25.30;54.44
3150;BME280;32503;47.748;8.960;2022-07-29T10:41:42;96847.81;;;25.41;53.67
3150;BME280;32503;47.748;8.960;2022-07-29T10:44:18;96845.50;;;25.39;52.47
3150;BME280;32503;47.748;8.960;2022-07-29T10:46:46;96822.16;;;25.49;52.43
3150;BME280;32503;47.748;8.960;2022-07-29T10:49:16;96830.41;;;25.71;51.66
3150;BME280;32503;47.748;8.960;2022-07-29T10:51:58;96829.44;;;25.97;51.06
3150;BME280;32503;47.748;8.960;2022-07-29T10:54:47;96825.16;;;26.23;50.16
3150;BME280;32503;47.748;8.960;2022-07-29T10:57:22;96814.88;;;26.33;49.38
3150;BME280;32503;47.748;8.960;2022-07-29T11:02:52;96823.19;;;26.70;50.19
3150;BME280;32503;47.748;8.960;2022-07-29T11:05:22;96821.97;;;26.90;49.16
3150;BME280;32503;47.748;8.960;2022-07-29T11:08:22;96821.00;;;27.11;48.38
3150;BME280;32503;47.748;8.960;2022-07-29T11:14:06;96826.00;;;27.40;47.96
3150;BME280;32503;47.748;8.960;2022-07-29T11:17:03;96821.25;;;27.22;46.02
3150;BME280;32503;47.748;8.960;2022-07-29T11:19:30;96824.19;;;27.19;47.06
3150;BME280;32503;47.748;8.960;2022-07-29T11:21:59;96804.66;;;27.13;46.80
3150;BME280;32503;47.748;8.960;2022-07-29T11:24:28;96804.84;;;27.52;46.84
3150;BME280;32503;47.748;8.960;2022-07-29T11:27:15;96818.31;;;27.78;46.72
3150;BME280;32503;47.748;8.960;2022-07-29T11:29:54;96805.31;;;27.84;45.40
3150;BME280;32503;47.748;8.960;2022-07-29T11:32:23;96808.53;;;27.92;45.73
3150;BME280;32503;47.748;8.960;2022-07-29T11:35:13;96801.84;;;27.98;45.18
3150;BME280;32503;47.748;8.960;2022-07-29T11:37:41;96795.59;;;28.13;44.85
3150;BME280;32503;47.748;8.960;2022-07-29T11:40:16;96800.66;;;28.39;44.59
3150;BME280;32503;47.748;8.960;2022-07-29T11:42:51;96805.47;;;28.53;43.43
3150;BME280;32503;47.748;8.960;2022-07-29T11:45:25;96808.16;;;28.47;41.00
3150;BME280;32503;47.748;8.960;2022-07-29T11:47:59;96806.03;;;28.42;41.57
3150;BME280;32503;47.748;8.960;2022-07-29T11:50:33;96808.63;;;28.46;40.39
3150;BME280;32503;47.748;8.960;2022-07-29T11:53:09;96802.50;;;28.42;41.09
3150;BME280;32503;47.748;8.960;2022-07-29T11:55:38;96800.06;;;28.34;40.04
3150;BME280;32503;47.748;8.960;2022-07-29T11:58:05;96801.19;;;28.28;39.50
3150;BME280;32503;47.748;8.960;2022-07-29T12:00:35;96794.47;;;28.59;40.00
3150;BME280;32503;47.748;8.960;2022-07-29T12:03:05;96786.56;;;28.66;40.29
3150;BME280;32503;47.748;8.960;2022-07-29T12:05:37;96789.63;;;28.68;40.07
3150;BME280;32503;47.748;8.960;2022-07-29T12:08:12;96786.03;;;28.29;41.05
3150;BME280;32503;47.748;8.960;2022-07-29T12:10:40;96785.47;;;28.25;40.72
3150;BME280;32503;47.748;8.960;2022-07-29T12:13:08;96778.31;;;28.33;41.25
3150;BME280;32503;47.748;8.960;2022-07-29T12:15:36;96780.91;;;28.36;41.03
3150;BME280;32503;47.748;8.960;2022-07-29T12:18:12;96765.69;;;28.47;40.92
3150;BME280;32503;47.748;8.960;2022-07-29T12:20:40;96789.63;;;28.68;41.44
3150;BME280;32503;47.748;8.960;2022-07-29T12:23:09;96783.41;;;28.34;40.87
3150;BME280;32503;47.748;8.960;2022-07-29T12:25:39;96788.34;;;28.30;41.92
3150;BME280;32503;47.748;8.960;2022-07-29T12:28:10;96744.63;;;28.16;42.14
3150;BME280;32503;47.748;8.960;2022-07-29T12:30:43;96777.03;;;28.58;40.76
3150;BME280;32503;47.748;8.960;2022-07-29T12:33:14;96774.78;;;28.47;40.82
3150;BME280;32503;47.748;8.960;2022-07-29T12:35:44;96773.63;;;28.39;41.59
3150;BME280;32503;47.748;8.960;2022-07-29T12:38:13;96777.00;;;28.43;41.14
3150;BME280;32503;47.748;8.960;2022-07-29T12:40:43;96772.38;;;28.40;41.08
3150;BME280;32503;47.748;8.960;2022-07-29T12:43:13;96771.13;;;28.41;40.48
3150;BME280;32503;47.748;8.960;2022-07-29T12:45:43;96769.78;;;28.36;42.46
3150;BME280;32503;47.748;8.960;2022-07-29T12:48:11;96770.00;;;28.48;43.02
3150;BME280;32503;47.748;8.960;2022-07-29T12:50:57;96769.00;;;28.60;41.50
3150;BME280;32503;47.748;8.960;2022-07-29T12:53:26;96780.41;;;28.62;41.00
3150;BME280;32503;47.748;8.960;2022-07-29T12:55:55;96776.81;;;28.47;41.42
3150;BME280;32503;47.748;8.960;2022-07-29T12:58:30;96766.94;;;28.46;41.88
3150;BME280;32503;47.748;8.960;2022-07-29T13:01:08;96783.41;;;28.34;40.43
3150;BME280;32503;47.748;8.960;2022-07-29T13:03:48;96779.78;;;28.43;42.34
3150;BME280;32503;47.748;8.960;2022-07-29T13:06:35;96772.25;;;28.59;41.88
3150;BME280;32503;47.748;8.960;2022-07-29T13:09:07;96783.78;;;28.42;41.14
3150;BME280;32503;47.748;8.960;2022-07-29T13:11:38;96774.59;;;28.51;40.84
3150;BME280;32503;47.748;8.960;2022-07-29T13:14:07;96774.84;;;28.62;40.85
3150;BME280;32503;47.748;8.960;2022-07-29T13:16:35;96762.47;;;28.63;40.93
3150;BME280;32503;47.748;8.960;2022-07-29T13:19:09;96772.56;;;28.76;41.06
3150;BME280;32503;47.748;8.960;2022-07-29T13:21:37;96776.00;;;28.70;40.30
3150;BME280;32503;47.748;8.960;2022-07-29T13:24:07;96771.75;;;28.60;40.49
3150;BME280;32503;47.748;8.960;2022-07-29T13:26:36;96774.91;;;28.14;42.05
3150;BME280;32503;47.748;8.960;2022-07-29T13:29:06;96773.53;;;28.09;41.83
3150;BME280;32503;47.748;8.960;2022-07-29T13:31:33;96773.13;;;28.02;42.34
3150;BME280;32503;47.748;8.960;2022-07-29T13:34:00;96775.44;;;28.03;42.47